Time;durP1;ratioP1;P1;durP2;ratioP2;P2;SDS_P1;SDS_P2;PMS_P1;PMS_P2;Temp;Humidity;BMP_temperature;BMP_pressure;BME280_temperature;BME280_humidity;BME280_pressure;Samples;Min_cycle;Max_cycle;Signal;HPM_P1;HPM_P2
2023/04/14 00:01:53;;;;;;;0.30;0.20;;;-0.10;99.90;;;;;;20751213;28;20045;-52
2023/04/14 00:11:56;;;;;;;0.75;0.25;;;-0.20;99.90;;;;;;20750724;28;20060;-52
2023/04/14 00:21:57;;;;;;;0.57;0.32;;;-0.10;99.90;;;;;;20749866;28;20046;-51
2023/04/14 00:31:59;;;;;;;0.68;0.30;;;0.00;99.90;;;;;;20750193;28;20041;-51
2023/04/14 00:42:01;;;;;;;0.30;0.13;;;-0.10;99.90;;;;;;20748248;28;20195;-63
2023/04/14 00:52:04;;;;;;;0.73;0.20;;;0.10;99.90;;;;;;20746499;28;20042;-51
2023/04/14 01:02:07;;;;;;;0.45;0.20;;;0.10;99.90;;;;;;20745611;28;20034;-49
2023/04/14 01:12:30;;;;;;;0.20;0.10;;;0.20;99.90;;;;;;20743792;28;20133;-62
2023/04/14 01:22:36;;;;;;;0.40;0.10;;;0.20;99.90;;;;;;20745541;28;20034;-51
2023/04/14 01:32:43;;;;;;;0.40;0.10;;;0.20;99.90;;;;;;20743312;28;20046;-62
2023/04/14 01:43:01;;;;;;;0.20;0.10;;;0.20;99.90;;;;;;20729614;28;20038;-52
2023/04/14 01:53:06;;;;;;;0.88;0.00;;;0.20;99.90;;;;;;20741938;28;20037;-54
2023/04/14 02:03:09;;;;;;;0.00;0.00;;;0.30;99.90;;;;;;20741090;28;20549;-49
2023/04/14 02:13:13;;;;;;;0.30;0.10;;;0.40;99.90;;;;;;20741038;28;20073;-52
2023/04/14 02:23:15;;;;;;;0.50;0.00;;;0.50;99.90;;;;;;20739862;28;20426;-51
2023/04/14 02:33:21;;;;;;;0.28;0.00;;;0.60;99.90;;;;;;20739206;28;20099;-51
2023/04/14 02:43:32;;;;;;;0.20;0.00;;;0.60;99.90;;;;;;20722611;28;20442;-51
2023/04/14 02:53:36;;;;;;;0.13;0.10;;;0.70;99.90;;;;;;20738148;28;20442;-50
2023/04/14 03:03:46;;;;;;;0.00;0.00;;;0.80;99.90;;;;;;20737908;28;20060;-51
2023/04/14 03:13:53;;;;;;;0.70;0.10;;;0.70;99.90;;;;;;20738067;28;20042;-50
2023/04/14 03:23:56;;;;;;;0.38;0.00;;;0.80;99.90;;;;;;20738210;28;20042;-50
2023/04/14 03:34:03;;;;;;;0.43;0.10;;;0.80;99.90;;;;;;20747719;28;20046;-62
2023/04/14 03:44:14;;;;;;;1.23;0.00;;;0.80;99.90;;;;;;20751701;28;20038;-62
2023/04/14 03:54:22;;;;;;;0.00;0.00;;;0.80;99.90;;;;;;20751166;28;20034;-59
2023/04/14 04:04:24;;;;;;;0.40;0.10;;;0.70;99.90;;;;;;20753038;28;20037;-52
2023/04/14 04:14:29;;;;;;;0.20;0.03;;;0.70;99.90;;;;;;20750554;28;20050;-51
2023/04/14 04:24:39;;;;;;;0.20;0.00;;;0.60;99.90;;;;;;20748822;28;20040;-51
2023/04/14 04:34:46;;;;;;;0.00;0.00;;;0.60;99.90;;;;;;20718761;28;20442;-49
2023/04/14 04:44:48;;;;;;;0.30;0.10;;;0.70;99.90;;;;;;20746036;28;20395;-51
2023/04/14 04:54:51;;;;;;;0.00;0.00;;;0.80;99.90;;;;;;20746304;28;20038;-51
2023/04/14 05:04:52;;;;;;;0.17;0.00;;;0.90;99.90;;;;;;20747255;28;20088;-62
2023/04/14 05:14:54;;;;;;;1.50;0.00;;;1.10;99.90;;;;;;20745739;28;20553;-48
2023/04/14 05:24:56;;;;;;;0.30;0.00;;;1.20;99.90;;;;;;20745404;28;20038;-51
2023/04/14 05:34:58;;;;;;;0.00;0.00;;;1.30;99.90;;;;;;20744765;28;20037;-50
2023/04/14 05:45:00;;;;;;;0.00;0.00;;;1.50;99.90;;;;;;20743803;28;20112;-50
2023/04/14 05:55:02;;;;;;;0.70;0.13;;;1.60;99.90;;;;;;20743097;28;20042;-47
2023/04/14 06:05:06;;;;;;;0.10;0.00;;;1.80;99.90;;;;;;20742501;28;20033;-50
2023/04/14 06:15:08;;;;;;;0.00;0.00;;;2.00;99.90;;;;;;20739830;28;20049;-50
2023/04/14 06:25:10;;;;;;;0.00;0.00;;;2.20;99.90;;;;;;20741013;28;20382;-48
2023/04/14 06:35:11;;;;;;;0.20;0.00;;;2.50;99.90;;;;;;20738533;28;20045;-52
2023/04/14 06:45:13;;;;;;;0.10;0.00;;;2.60;99.90;;;;;;20740707;28;20037;-51
2023/04/14 06:55:15;;;;;;;0.10;0.00;;;2.70;99.90;;;;;;20737879;28;20038;-52
2023/04/14 07:05:17;;;;;;;0.00;0.00;;;2.90;99.90;;;;;;20744648;28;20471;-51
2023/04/14 07:15:19;;;;;;;0.90;0.10;;;3.30;99.90;;;;;;20755054;28;20041;-50
2023/04/14 07:25:21;;;;;;;0.00;0.00;;;3.90;99.90;;;;;;20754673;28;20510;-52
2023/04/14 07:35:26;;;;;;;0.10;0.00;;;5.10;99.90;;;;;;20755076;28;20030;-51
2023/04/14 07:45:28;;;;;;;0.40;0.03;;;6.30;99.90;;;;;;20751985;28;20391;-51
2023/04/14 07:55:30;;;;;;;0.10;0.10;;;6.60;99.80;;;;;;20751060;28;20069;-51
2023/04/14 08:05:32;;;;;;;0.00;0.00;;;6.60;98.10;;;;;;20752184;28;20152;-49
2023/04/14 08:15:34;;;;;;;0.13;0.00;;;6.80;99.10;;;;;;20750121;28;20096;-62
2023/04/14 08:25:36;;;;;;;0.00;0.00;;;6.70;99.30;;;;;;20750712;28;20076;-63
2023/04/14 08:35:37;;;;;;;0.50;0.10;;;6.50;98.80;;;;;;20747907;28;20356;-62
2023/04/14 08:45:39;;;;;;;0.30;0.00;;;6.90;99.90;;;;;;20749235;28;20541;-48
2023/04/14 08:55:42;;;;;;;0.30;0.00;;;7.60;99.60;;;;;;20746405;28;20376;-49
2023/04/14 09:05:45;;;;;;;0.20;0.00;;;7.90;99.70;;;;;;20745374;28;20065;-62
2023/04/14 09:15:47;;;;;;;1.05;0.15;;;8.10;97.90;;;;;;20745666;28;20034;-47
2023/04/14 09:25:49;;;;;;;0.43;0.20;;;9.10;99.90;;;;;;20744959;28;20034;-48
2023/04/14 09:35:51;;;;;;;0.73;0.10;;;10.60;99.90;;;;;;20744900;28;20042;-60
2023/04/14 09:45:53;;;;;;;0.45;0.20;;;10.10;99.00;;;;;;20742570;28;20084;-51
2023/04/14 09:55:56;;;;;;;0.38;0.20;;;9.30;99.90;;;;;;20743210;28;20060;-58
2023/04/14 10:05:59;;;;;;;1.55;0.30;;;8.90;99.30;;;;;;20738400;28;20549;-61
2023/04/14 10:16:02;;;;;;;0.50;0.20;;;9.50;99.90;;;;;;20741241;28;20034;-47
2023/04/14 10:26:06;;;;;;;0.50;0.30;;;10.70;99.90;;;;;;20741065;28;20041;-47
2023/04/14 10:36:08;;;;;;;0.93;0.40;;;11.70;98.70;;;;;;20740486;28;20038;-47
2023/04/14 10:46:10;;;;;;;0.55;0.30;;;11.80;99.90;;;;;;20740736;28;20037;-48
2023/04/14 10:56:12;;;;;;;0.70;0.32;;;12.40;98.30;;;;;;20737820;28;20050;-51
2023/04/14 11:06:46;;;;;;;1.02;0.40;;;12.80;99.70;;;;;;20738811;28;20041;-49
2023/04/14 11:16:48;;;;;;;1.42;0.47;;;12.80;98.40;;;;;;20738258;28;20049;-48
2023/04/14 11:26:54;;;;;;;0.82;0.40;;;13.10;96.30;;;;;;20737141;28;20096;-49
2023/04/14 11:36:55;;;;;;;1.27;0.40;;;12.30;96.70;;;;;;20738752;28;20172;-53
2023/04/14 11:46:57;;;;;;;1.10;0.22;;;13.50;96.20;;;;;;20737764;28;20080;-49
2023/04/14 11:56:59;;;;;;;0.90;0.52;;;12.10;95.60;;;;;;20749415;28;20030;-49
2023/04/14 12:07:01;;;;;;;1.13;0.65;;;11.60;99.90;;;;;;20752052;28;20418;-52
2023/04/14 12:17:03;;;;;;;1.60;0.73;;;12.60;97.90;;;;;;20750779;28;20045;-48
2023/04/14 12:27:06;;;;;;;0.40;0.30;;;12.50;96.60;;;;;;20749834;28;20088;-49
2023/04/14 12:37:11;;;;;;;0.75;0.30;;;12.10;92.30;;;;;;20749625;28;20065;-51
2023/04/14 12:47:32;;;;;;;0.50;0.20;;;12.50;95.10;;;;;;20748802;28;20044;-50
2023/04/14 12:57:34;;;;;;;0.57;0.30;;;13.20;96.30;;;;;;20747466;28;20427;-63
2023/04/14 13:07:36;;;;;;;1.17;0.30;;;12.60;91.60;;;;;;20743331;28;20030;-49
2023/04/14 13:17:37;;;;;;;1.52;0.60;;;12.50;93.00;;;;;;20745933;28;20041;-53
2023/04/14 13:27:39;;;;;;;2.28;1.00;;;12.50;93.20;;;;;;20745382;28;20038;-52
2023/04/14 13:37:41;;;;;;;1.58;0.85;;;12.10;94.00;;;;;;20744411;28;20091;-62
2023/04/14 13:47:50;;;;;;;2.13;1.27;;;10.70;94.70;;;;;;20743744;28;20434;-55
2023/04/14 13:57:52;;;;;;;3.10;1.83;;;9.60;96.50;;;;;;20743059;28;20046;-49
2023/04/14 14:07:55;;;;;;;4.15;1.63;;;10.50;96.30;;;;;;20743307;28;20087;-62
2023/04/14 14:17:57;;;;;;;3.53;1.73;;;10.30;98.80;;;;;;20741263;28;20038;-62
2023/04/14 14:27:58;;;;;;;2.38;1.95;;;10.10;99.80;;;;;;20739794;28;20471;-62
2023/04/14 14:38:01;;;;;;;3.58;2.80;;;9.70;99.90;;;;;;20740433;28;20045;-53
2023/04/14 14:48:03;;;;;;;3.90;1.10;;;9.30;99.90;;;;;;20740466;28;20095;-60
2023/04/14 14:58:07;;;;;;;3.38;0.80;;;8.00;95.80;;;;;;20738072;28;20072;-52
2023/04/14 15:08:08;;;;;;;0.73;0.50;;;7.00;99.90;;;;;;20736338;28;20471;-60
2023/04/14 15:18:10;;;;;;;1.02;0.70;;;6.60;99.00;;;;;;20738588;28;20108;-52
2023/04/14 15:28:13;;;;;;;2.65;0.47;;;5.90;99.90;;;;;;20746382;28;20054;-53
2023/04/14 15:38:15;;;;;;;1.95;1.02;;;5.50;99.90;;;;;;20753117;28;20050;-51
2023/04/14 15:48:17;;;;;;;3.92;2.30;;;4.30;99.90;;;;;;20748135;28;20502;-62
2023/04/14 15:58:18;;;;;;;5.68;4.72;;;3.40;99.90;;;;;;20752875;28;20053;-63
2023/04/14 16:08:20;;;;;;;6.70;4.60;;;3.40;99.90;;;;;;20750079;28;20026;-63
2023/04/14 16:18:21;;;;;;;6.35;4.47;;;3.70;99.90;;;;;;20751670;28;20042;-48
2023/04/14 16:28:23;;;;;;;6.40;4.07;;;3.80;99.90;;;;;;20750369;28;20038;-47
2023/04/14 16:38:25;;;;;;;4.75;3.58;;;3.90;99.90;;;;;;20747063;28;20487;-63
2023/04/14 16:48:27;;;;;;;8.57;5.05;;;4.10;99.90;;;;;;20749181;28;20114;-47
2023/04/14 16:58:29;;;;;;;6.55;4.50;;;4.10;99.90;;;;;;20748704;28;20049;-49
2023/04/14 17:08:32;;;;;;;6.10;3.90;;;4.20;99.90;;;;;;20747434;28;20045;-62
2023/04/14 17:18:34;;;;;;;4.22;2.28;;;3.90;99.90;;;;;;20747112;28;20045;-50
2023/04/14 17:28:37;;;;;;;3.05;2.20;;;3.90;99.90;;;;;;20746020;28;20037;-50
2023/04/14 17:38:40;;;;;;;4.75;3.20;;;4.00;99.90;;;;;;20742893;28;20038;-56
2023/04/14 17:48:42;;;;;;;4.75;3.30;;;4.00;99.90;;;;;;20744396;28;20041;-49
2023/04/14 17:58:45;;;;;;;4.80;3.00;;;3.80;99.90;;;;;;20743435;28;20038;-61
2023/04/14 18:08:47;;;;;;;5.75;3.42;;;3.60;99.90;;;;;;20742423;28;20038;-60
2023/04/14 18:18:49;;;;;;;4.70;3.42;;;3.20;99.90;;;;;;20742659;28;20392;-60
2023/04/14 18:28:50;;;;;;;4.53;3.13;;;3.10;99.90;;;;;;20741530;28;20061;-60
2023/04/14 18:38:52;;;;;;;4.55;3.17;;;2.90;99.90;;;;;;20738630;28;20488;-60
2023/04/14 18:48:54;;;;;;;5.88;2.97;;;3.00;99.90;;;;;;20741172;28;20395;-50
2023/04/14 18:58:56;;;;;;;3.05;2.25;;;2.80;99.90;;;;;;20737628;28;20046;-49
2023/04/14 19:08:59;;;;;;;3.22;2.33;;;2.60;99.90;;;;;;20736581;28;20545;-59
2023/04/14 19:19:01;;;;;;;2.72;1.88;;;2.50;99.90;;;;;;20739665;28;20029;-51
2023/04/14 19:29:03;;;;;;;2.15;1.67;;;2.40;99.90;;;;;;20735842;28;20030;-50
2023/04/14 19:39:05;;;;;;;1.90;1.30;;;2.30;99.90;;;;;;20716882;28;20069;-49
2023/04/14 19:49:07;;;;;;;2.72;1.20;;;2.40;99.90;;;;;;20737941;28;20463;-50
2023/04/14 19:59:09;;;;;;;1.70;1.10;;;2.30;99.90;;;;;;20737510;28;20096;-55
2023/04/14 20:09:11;;;;;;;1.92;1.15;;;2.00;99.90;;;;;;20737498;28;20038;-51
2023/04/14 20:19:12;;;;;;;1.92;1.45;;;1.90;99.90;;;;;;20751200;28;20037;-48
2023/04/14 20:29:17;;;;;;;1.60;1.10;;;1.80;99.90;;;;;;20749449;28;20045;-48
2023/04/14 20:39:19;;;;;;;2.35;1.30;;;1.70;99.90;;;;;;20750867;28;20029;-51
2023/04/14 20:49:21;;;;;;;2.20;1.48;;;1.60;99.90;;;;;;20749346;28;20033;-49
2023/04/14 20:59:23;;;;;;;3.85;1.90;;;1.50;99.90;;;;;;20747276;28;20143;-51
2023/04/14 21:09:24;;;;;;;2.55;1.52;;;1.40;99.90;;;;;;20746280;28;20037;-48
2023/04/14 21:19:27;;;;;;;2.17;1.45;;;1.50;99.90;;;;;;20746459;28;20045;-49
2023/04/14 21:29:28;;;;;;;3.00;1.38;;;1.90;99.90;;;;;;20744811;28;20089;-49
2023/04/14 21:39:32;;;;;;;1.45;1.00;;;1.90;99.90;;;;;;20745050;28;20038;-49
2023/04/14 21:49:35;;;;;;;1.88;0.80;;;1.80;99.90;;;;;;20745702;28;20072;-48
2023/04/14 21:59:37;;;;;;;0.70;0.47;;;1.50;99.90;;;;;;20742683;28;20030;-47
2023/04/14 22:09:39;;;;;;;3.38;0.40;;;1.20;99.90;;;;;;20742924;28;20026;-51
2023/04/14 22:19:41;;;;;;;0.45;0.20;;;0.90;99.90;;;;;;20741060;28;20076;-49
2023/04/14 22:29:43;;;;;;;0.30;0.10;;;0.90;99.90;;;;;;20741462;28;20038;-49
2023/04/14 22:39:45;;;;;;;0.55;0.30;;;1.00;99.90;;;;;;20740654;28;20033;-47
2023/04/14 22:49:46;;;;;;;0.20;0.10;;;1.10;99.90;;;;;;20742498;28;20042;-59
2023/04/14 22:59:48;;;;;;;0.17;0.10;;;1.20;99.90;;;;;;20739987;28;20069;-50
2023/04/14 23:09:49;;;;;;;0.22;0.08;;;1.30;99.90;;;;;;20739580;28;20037;-59
2023/04/14 23:19:52;;;;;;;0.52;0.10;;;1.20;99.90;;;;;;20739632;28;20045;-59
2023/04/14 23:29:54;;;;;;;0.85;0.10;;;1.20;99.90;;;;;;20738873;28;20438;-48
2023/04/14 23:39:56;;;;;;;0.60;0.20;;;1.20;99.90;;;;;;20737560;28;20046;-48
2023/04/14 23:49:58;;;;;;;0.40;0.20;;;0.90;99.90;;;;;;20747273;28;20527;-48
2023/04/14 23:59:59;;;;;;;0.30;0.20;;;0.80;99.90;;;;;;20752705;28;20387;-47
